createdAt,value
2017-11-17T00:01:55.720Z,11.00
2017-11-17T00:04:23.329Z,11.00
2017-11-17T00:06:51.065Z,11.00
2017-11-17T00:09:19.596Z,11.00
2017-11-17T00:11:48.070Z,11.00
2017-11-17T00:14:15.919Z,11.00
2017-11-17T00:16:43.493Z,11.00
2017-11-17T00:19:11.171Z,10.90
2017-11-17T00:21:38.835Z,10.90
2017-11-17T00:24:06.618Z,10.80
2017-11-17T00:26:34.371Z,10.80
2017-11-17T00:29:02.061Z,10.70
2017-11-17T00:31:29.876Z,10.60
2017-11-17T00:33:57.569Z,10.50
2017-11-17T00:36:25.258Z,10.40
2017-11-17T00:38:53.022Z,10.40
2017-11-17T00:41:21.389Z,10.40
2017-11-17T00:43:49.033Z,10.40
2017-11-17T00:46:16.838Z,10.40
2017-11-17T00:48:45.273Z,10.50
2017-11-17T00:51:12.987Z,10.50
2017-11-17T00:53:40.761Z,10.50
2017-11-17T00:56:09.392Z,10.40
2017-11-17T00:58:37.063Z,10.30
2017-11-17T01:01:04.699Z,10.30
2017-11-17T01:03:32.457Z,10.20
2017-11-17T01:06:00.140Z,10.10
2017-11-17T01:08:27.858Z,10.10
2017-11-17T01:10:58.129Z,10.00
2017-11-17T01:13:25.775Z,9.90
2017-11-17T01:15:53.374Z,9.90
2017-11-17T01:18:21.061Z,9.80
2017-11-17T01:20:49.608Z,9.70
2017-11-17T01:23:17.501Z,9.70
2017-11-17T01:25:45.266Z,9.60
2017-11-17T01:28:12.945Z,9.60
2017-11-17T01:30:41.435Z,9.50
2017-11-17T01:33:09.955Z,9.40
2017-11-17T01:35:37.742Z,9.40
2017-11-17T01:38:05.520Z,9.40
2017-11-17T01:40:33.177Z,9.30
2017-11-17T01:43:00.793Z,9.30
2017-11-17T01:45:28.519Z,9.20
2017-11-17T01:47:56.261Z,9.20
2017-11-17T01:50:23.989Z,9.20
2017-11-17T01:52:51.749Z,9.10
2017-11-17T01:55:19.460Z,9.10
2017-11-17T01:57:47.176Z,9.10
2017-11-17T02:00:14.828Z,9.10
2017-11-17T02:02:43.395Z,9.00
2017-11-17T02:05:11.835Z,9.00
2017-11-17T02:07:39.573Z,8.90
2017-11-17T02:10:07.363Z,8.90
2017-11-17T02:12:35.142Z,8.90
2017-11-17T02:15:02.894Z,8.80
2017-11-17T02:17:30.553Z,8.80
2017-11-17T02:19:58.319Z,8.80
2017-11-17T02:22:26.109Z,8.80
2017-11-17T02:24:53.775Z,8.70
2017-11-17T02:27:21.523Z,8.70
2017-11-17T02:29:50.181Z,8.70
2017-11-17T02:32:17.975Z,8.70
2017-11-17T02:34:45.733Z,8.60
2017-11-17T02:37:13.509Z,8.60
2017-11-17T02:39:41.318Z,8.60
2017-11-17T02:42:09.082Z,8.60
2017-11-17T02:44:37.535Z,8.60
2017-11-17T02:47:05.367Z,8.60
2017-11-17T02:49:33.212Z,8.50
2017-11-17T02:52:01.128Z,8.40
2017-11-17T02:54:28.796Z,8.40
2017-11-17T02:56:56.537Z,8.30
2017-11-17T02:59:24.457Z,8.30
2017-11-17T03:01:52.248Z,8.20
2017-11-17T03:04:20.824Z,8.20
2017-11-17T03:06:48.543Z,8.10
2017-11-17T03:09:17.078Z,8.00
2017-11-17T03:11:44.737Z,8.00
2017-11-17T03:14:12.451Z,8.00
2017-11-17T03:16:40.289Z,7.90
2017-11-17T03:19:07.978Z,7.90
2017-11-17T03:21:35.650Z,7.80
2017-11-17T03:24:03.416Z,7.80
2017-11-17T03:26:31.124Z,7.70
2017-11-17T03:28:58.922Z,7.70
2017-11-17T03:31:26.575Z,7.70
2017-11-17T03:33:54.407Z,7.60
2017-11-17T03:36:22.928Z,7.60
2017-11-17T03:38:51.641Z,7.50
2017-11-17T03:41:19.472Z,7.50
2017-11-17T03:43:47.294Z,7.50
2017-11-17T03:46:15.960Z,7.40
2017-11-17T03:48:43.635Z,7.40
2017-11-17T03:51:11.292Z,7.40
2017-11-17T03:53:38.981Z,7.30
2017-11-17T03:56:06.568Z,7.30
2017-11-17T03:58:34.255Z,7.30
2017-11-17T04:01:02.013Z,7.20
2017-11-17T04:03:29.690Z,7.20
2017-11-17T04:05:57.362Z,7.10
2017-11-17T04:08:25.040Z,7.10
2017-11-17T04:10:53.366Z,7.10
2017-11-17T04:13:22.653Z,7.00
2017-11-17T04:15:50.400Z,7.00
2017-11-17T04:18:18.191Z,7.00
2017-11-17T04:20:45.843Z,6.90
2017-11-17T04:23:13.506Z,6.90
2017-11-17T04:25:41.217Z,6.90
2017-11-17T04:28:08.997Z,6.80
2017-11-17T04:30:36.757Z,6.80
2017-11-17T04:33:04.491Z,6.80
2017-11-17T04:35:32.111Z,6.70
2017-11-17T04:37:59.844Z,6.70
2017-11-17T04:40:27.485Z,6.60
2017-11-17T04:42:55.137Z,6.60
2017-11-17T04:45:22.839Z,6.50
2017-11-17T04:47:50.505Z,6.50
2017-11-17T04:50:18.269Z,6.50
2017-11-17T04:52:46.765Z,6.40
2017-11-17T04:55:15.298Z,6.40
2017-11-17T04:57:43.061Z,6.40
2017-11-17T05:00:10.773Z,6.40
2017-11-17T05:02:39.233Z,6.30
2017-11-17T05:05:06.997Z,6.30
2017-11-17T05:07:34.729Z,6.30
2017-11-17T05:10:02.411Z,6.30
2017-11-17T05:12:30.144Z,6.20
2017-11-17T05:14:57.803Z,6.20
2017-11-17T05:17:25.531Z,6.20
2017-11-17T05:19:53.512Z,6.10
2017-11-17T05:22:21.266Z,6.10
2017-11-17T05:24:49.018Z,6.10
2017-11-17T05:27:16.620Z,6.00
2017-11-17T05:29:45.192Z,6.00
2017-11-17T05:32:12.824Z,6.00
2017-11-17T05:34:40.702Z,6.00
2017-11-17T05:37:08.587Z,5.90
2017-11-17T05:39:38.175Z,5.90
2017-11-17T05:42:07.804Z,5.90
2017-11-17T05:44:36.298Z,5.90
2017-11-17T05:47:04.071Z,5.80
2017-11-17T05:49:32.547Z,5.80
2017-11-17T05:52:01.137Z,5.80
2017-11-17T05:54:29.677Z,5.80
2017-11-17T05:56:57.333Z,5.70
2017-11-17T05:59:25.089Z,5.70
2017-11-17T06:01:52.670Z,5.70
2017-11-17T06:04:20.440Z,5.70
2017-11-17T06:06:48.126Z,5.70
2017-11-17T06:09:15.711Z,5.60
2017-11-17T06:11:43.387Z,5.60
2017-11-17T06:14:11.004Z,5.60
2017-11-17T06:16:39.561Z,5.50
2017-11-17T06:19:07.230Z,5.50
2017-11-17T06:21:34.863Z,5.50
2017-11-17T06:24:02.500Z,5.50
2017-11-17T06:26:30.099Z,5.50
2017-11-17T06:28:57.824Z,5.40
2017-11-17T06:31:25.494Z,5.40
2017-11-17T06:33:53.136Z,5.40
2017-11-17T06:36:21.580Z,5.40
2017-11-17T06:38:49.236Z,5.40
2017-11-17T06:41:16.854Z,5.40
2017-11-17T06:43:44.447Z,5.30
2017-11-17T06:46:12.060Z,5.30
2017-11-17T06:48:40.507Z,5.30
2017-11-17T06:51:08.286Z,5.20
2017-11-17T06:53:35.870Z,5.30
2017-11-17T06:56:04.289Z,5.20
2017-11-17T06:58:34.773Z,5.20
2017-11-17T07:01:02.396Z,5.20
2017-11-17T07:03:30.203Z,5.20
2017-11-17T07:05:58.787Z,5.20
2017-11-17T07:08:26.495Z,5.20
2017-11-17T07:10:54.195Z,5.20
2017-11-17T07:13:21.936Z,5.20
2017-11-17T07:15:49.554Z,5.20
2017-11-17T07:18:18.076Z,5.20
2017-11-17T07:20:45.830Z,5.10
2017-11-17T07:23:13.583Z,5.20
2017-11-17T07:25:41.216Z,5.20
2017-11-17T07:28:09.699Z,5.20
2017-11-17T07:30:38.247Z,5.20
2017-11-17T07:33:05.869Z,5.20
2017-11-17T07:35:33.619Z,5.20
2017-11-17T07:38:01.217Z,5.20
2017-11-17T07:40:28.871Z,5.20
2017-11-17T07:42:56.514Z,5.30
2017-11-17T07:45:24.284Z,5.30
2017-11-17T07:47:52.055Z,5.30
2017-11-17T07:50:19.768Z,5.40
2017-11-17T07:52:47.567Z,5.40
2017-11-17T07:55:15.922Z,5.40
2017-11-17T07:57:43.689Z,5.40
2017-11-17T08:00:12.063Z,5.50
2017-11-17T08:02:39.837Z,5.50
2017-11-17T08:05:08.347Z,5.50
2017-11-17T08:07:35.992Z,5.50
2017-11-17T08:10:04.580Z,5.60
2017-11-17T08:12:32.424Z,5.60
2017-11-17T08:15:00.110Z,5.60
2017-11-17T08:17:39.410Z,5.60
2017-11-17T08:20:07.260Z,5.70
2017-11-17T08:22:35.016Z,5.70
2017-11-17T08:25:02.693Z,5.80
2017-11-17T08:27:30.436Z,5.80
2017-11-17T08:29:58.122Z,5.80
2017-11-17T08:32:25.791Z,5.90
2017-11-17T08:34:53.552Z,5.90
2017-11-17T08:37:21.445Z,5.90
2017-11-17T08:39:49.185Z,6.00
2017-11-17T08:42:16.971Z,6.00
2017-11-17T08:44:44.838Z,6.10
2017-11-17T08:47:13.319Z,6.20
2017-11-17T08:49:41.068Z,6.10
2017-11-17T08:52:08.817Z,6.20
2017-11-17T08:54:36.692Z,6.20
2017-11-17T08:57:04.569Z,6.30
2017-11-17T08:59:32.303Z,6.30
2017-11-17T09:01:59.997Z,6.30
2017-11-17T09:04:27.724Z,6.40
2017-11-17T09:06:55.479Z,6.40
2017-11-17T09:09:23.164Z,6.40
2017-11-17T09:11:50.971Z,6.50
2017-11-17T09:14:18.671Z,6.50
2017-11-17T09:16:46.493Z,6.50
2017-11-17T09:19:14.140Z,6.60
2017-11-17T09:21:41.858Z,6.60
2017-11-17T09:24:10.329Z,6.70
2017-11-17T09:26:38.936Z,6.70
2017-11-17T09:29:06.757Z,6.80
2017-11-17T09:31:34.448Z,6.80
2017-11-17T09:34:02.154Z,6.80
2017-11-17T09:36:29.874Z,6.90
2017-11-17T09:38:57.941Z,6.90
2017-11-17T09:41:26.407Z,7.00
2017-11-17T09:43:53.995Z,7.00
2017-11-17T09:46:21.690Z,7.10
2017-11-17T09:48:49.541Z,7.10
2017-11-17T09:51:17.338Z,7.20
2017-11-17T09:53:45.043Z,7.20
2017-11-17T09:56:13.641Z,7.30
2017-11-17T09:58:41.304Z,7.30
2017-11-17T10:01:09.889Z,7.40
2017-11-17T10:03:38.408Z,7.50
2017-11-17T10:06:06.059Z,7.40
2017-11-17T10:08:33.800Z,7.50
2017-11-17T10:11:01.505Z,7.50
2017-11-17T10:13:29.249Z,7.50
2017-11-17T10:15:56.899Z,7.60
2017-11-17T10:18:24.583Z,7.60
2017-11-17T10:20:52.212Z,7.70
2017-11-17T10:23:20.607Z,7.80
2017-11-17T10:25:48.302Z,7.80
2017-11-17T10:28:16.103Z,7.90
2017-11-17T10:30:43.806Z,7.90
2017-11-17T10:33:11.509Z,8.00
2017-11-17T10:35:39.177Z,8.10
2017-11-17T10:38:06.884Z,8.20
2017-11-17T10:40:34.593Z,8.30
2017-11-17T10:43:02.232Z,8.30
2017-11-17T10:45:29.989Z,8.30
2017-11-17T10:47:57.701Z,8.30
2017-11-17T10:50:26.162Z,8.50
2017-11-17T10:52:53.859Z,8.40
2017-11-17T10:55:21.620Z,8.50
2017-11-17T10:57:49.362Z,8.60
2017-11-17T11:00:22.110Z,8.60
2017-11-17T11:02:49.700Z,8.60
2017-11-17T11:05:17.494Z,8.70
2017-11-17T11:07:46.232Z,8.70
2017-11-17T11:10:13.870Z,8.80
2017-11-17T11:12:41.689Z,8.80
2017-11-17T11:15:09.494Z,8.90
2017-11-17T11:17:38.026Z,8.90
2017-11-17T11:20:06.387Z,8.90
2017-11-17T11:22:34.176Z,9.00
2017-11-17T11:25:01.866Z,9.00
2017-11-17T11:27:30.178Z,9.10
2017-11-17T11:29:57.865Z,9.10
2017-11-17T11:32:25.510Z,9.10
2017-11-17T11:34:53.140Z,9.20
2017-11-17T11:37:21.707Z,9.20
2017-11-17T11:39:49.518Z,9.30
2017-11-17T11:42:17.753Z,9.30
2017-11-17T11:44:45.423Z,9.40
2017-11-17T11:47:13.042Z,9.40
2017-11-17T11:49:40.750Z,9.50
2017-11-17T11:52:08.527Z,9.50
2017-11-17T11:54:36.266Z,9.60
2017-11-17T11:57:04.107Z,9.60
2017-11-17T11:59:31.878Z,9.70
2017-11-17T12:02:00.547Z,9.90
2017-11-17T12:04:28.147Z,10.00
2017-11-17T12:06:55.801Z,10.10
2017-11-17T12:09:23.642Z,10.20
2017-11-17T12:11:51.283Z,10.40
2017-11-17T12:14:19.744Z,10.70
2017-11-17T12:16:47.466Z,10.70
2017-11-17T12:19:15.198Z,10.90
2017-11-17T12:21:42.830Z,11.10
2017-11-17T12:24:10.456Z,11.10
2017-11-17T12:26:38.291Z,11.20
2017-11-17T12:29:05.938Z,11.30
2017-11-17T12:31:34.339Z,11.60
2017-11-17T12:34:02.120Z,11.60
2017-11-17T12:36:31.597Z,11.60
2017-11-17T12:38:59.359Z,11.60
2017-11-17T12:41:27.050Z,11.50
2017-11-17T12:43:54.762Z,11.40
2017-11-17T12:46:22.500Z,11.30
2017-11-17T12:48:50.236Z,11.20
2017-11-17T12:51:17.954Z,11.20
2017-11-17T12:53:45.771Z,11.20
2017-11-17T12:56:13.481Z,11.20
2017-11-17T12:58:41.204Z,11.30
2017-11-17T13:01:08.938Z,11.40
2017-11-17T13:03:36.715Z,11.50
2017-11-17T13:06:04.409Z,11.60
2017-11-17T13:08:32.154Z,11.70
2017-11-17T13:10:59.886Z,11.80
2017-11-17T13:13:28.380Z,12.00
2017-11-17T13:15:56.806Z,12.00
2017-11-17T13:18:24.557Z,12.00
2017-11-17T13:20:52.224Z,11.90
2017-11-17T13:23:20.026Z,11.90
2017-11-17T13:25:47.763Z,12.00
2017-11-17T13:28:15.376Z,12.10
2017-11-17T13:30:43.847Z,12.20
2017-11-17T13:33:12.387Z,12.20
2017-11-17T13:35:40.179Z,12.20
2017-11-17T13:38:07.912Z,12.20
2017-11-17T13:40:35.665Z,12.30
2017-11-17T13:43:03.443Z,12.40
2017-11-17T13:45:32.097Z,12.50
2017-11-17T13:48:00.533Z,12.30
2017-11-17T13:50:28.219Z,12.30
2017-11-17T13:52:56.657Z,12.10
2017-11-17T13:55:24.397Z,12.10
2017-11-17T13:57:52.157Z,12.00
2017-11-17T14:00:19.889Z,11.90
2017-11-17T14:02:47.732Z,11.70
2017-11-17T14:05:15.370Z,11.60
2017-11-17T14:07:42.952Z,11.60
2017-11-17T14:10:10.451Z,11.60
2017-11-17T14:12:38.837Z,11.60
2017-11-17T14:15:07.369Z,11.60
2017-11-17T14:17:35.101Z,11.60
2017-11-17T14:20:02.924Z,11.60
2017-11-17T14:22:30.532Z,11.60
2017-11-17T14:24:58.161Z,11.60
2017-11-17T14:27:25.778Z,11.60
2017-11-17T14:29:53.465Z,11.60
2017-11-17T14:32:21.066Z,11.50
2017-11-17T14:34:49.518Z,11.50
2017-11-17T14:37:17.270Z,11.60
2017-11-17T14:39:44.973Z,11.50
2017-11-17T14:42:12.588Z,11.50
2017-11-17T14:44:40.359Z,11.40
2017-11-17T14:47:08.058Z,11.40
2017-11-17T14:49:36.519Z,11.40
2017-11-17T14:52:04.271Z,11.40
2017-11-17T14:54:32.003Z,11.40
2017-11-17T14:56:59.754Z,11.40
2017-11-17T14:59:27.496Z,11.40
2017-11-17T15:01:56.035Z,11.40
2017-11-17T15:04:23.922Z,11.40
2017-11-17T15:06:51.691Z,11.40
2017-11-17T15:09:19.304Z,11.40
2017-11-17T15:11:47.029Z,11.40
2017-11-17T15:14:15.410Z,11.30
2017-11-17T15:16:43.830Z,11.10
2017-11-17T15:19:11.514Z,11.10
2017-11-17T15:21:39.295Z,11.00
2017-11-17T15:24:06.959Z,10.90
2017-11-17T15:26:34.626Z,10.70
2017-11-17T15:29:02.405Z,10.60
2017-11-17T15:31:30.845Z,10.30
2017-11-17T15:33:58.548Z,10.30
2017-11-17T15:36:26.262Z,10.20
2017-11-17T15:38:54.158Z,10.10
2017-11-17T15:41:21.914Z,10.00
2017-11-17T15:43:49.774Z,9.80
2017-11-17T15:46:17.461Z,9.70
2017-11-17T15:48:45.251Z,9.60
2017-11-17T15:51:13.753Z,9.50
2017-11-17T15:53:41.491Z,9.40
2017-11-17T15:56:09.135Z,9.30
2017-11-17T15:58:36.868Z,9.30
2017-11-17T16:01:04.538Z,9.20
2017-11-17T16:03:32.284Z,9.10
2017-11-17T16:06:00.041Z,9.00
2017-11-17T16:08:27.771Z,8.90
2017-11-17T16:10:55.387Z,8.80
2017-11-17T16:13:23.114Z,8.80
2017-11-17T16:15:51.606Z,8.60
2017-11-17T16:18:20.236Z,8.60
2017-11-17T16:20:47.961Z,8.50
2017-11-17T16:23:16.355Z,8.40
2017-11-17T16:25:44.060Z,8.40
2017-11-17T16:28:11.777Z,8.40
2017-11-17T16:30:39.506Z,8.40
2017-11-17T16:33:07.164Z,8.40
2017-11-17T16:35:34.996Z,8.50
2017-11-17T16:38:03.482Z,8.60
2017-11-17T16:40:31.957Z,8.70
2017-11-17T16:42:59.590Z,8.70
2017-11-17T16:45:27.360Z,8.70
2017-11-17T16:47:55.133Z,8.70
2017-11-17T16:50:22.966Z,8.70
2017-11-17T16:52:50.798Z,8.70
2017-11-17T16:55:18.505Z,8.70
2017-11-17T16:57:46.908Z,8.60
2017-11-17T17:00:14.681Z,8.60
2017-11-17T17:02:42.363Z,8.60
2017-11-17T17:05:10.150Z,8.60
2017-11-17T17:07:37.892Z,8.70
2017-11-17T17:10:05.713Z,8.70
2017-11-17T17:12:34.077Z,8.80
2017-11-17T17:15:02.499Z,8.80
2017-11-17T17:17:30.099Z,8.70
2017-11-17T17:19:57.827Z,8.80
2017-11-17T17:22:25.546Z,8.80
2017-11-17T17:24:54.066Z,8.80
2017-11-17T17:27:21.707Z,8.80
2017-11-17T17:29:50.215Z,8.80
2017-11-17T17:32:18.768Z,8.80
2017-11-17T17:34:46.532Z,8.80
2017-11-17T17:37:15.123Z,8.90
2017-11-17T17:39:43.616Z,8.90
2017-11-17T17:42:11.420Z,8.80
2017-11-17T17:44:39.104Z,8.90
2017-11-17T17:47:06.769Z,8.90
2017-11-17T17:49:34.453Z,8.90
2017-11-17T17:52:02.937Z,9.00
2017-11-17T17:54:31.383Z,9.00
2017-11-17T17:56:59.012Z,8.90
2017-11-17T17:59:26.694Z,9.00
2017-11-17T18:01:54.400Z,8.90
2017-11-17T18:04:22.178Z,8.90
2017-11-17T18:06:50.602Z,8.80
2017-11-17T18:09:18.225Z,8.80
2017-11-17T18:11:45.864Z,9.00
2017-11-17T18:14:13.538Z,8.90
2017-11-17T18:16:41.977Z,8.90
2017-11-17T18:19:09.653Z,8.90
2017-11-17T18:21:37.351Z,8.90
2017-11-17T18:24:05.969Z,8.70
2017-11-17T18:26:33.687Z,8.70
2017-11-17T18:29:01.389Z,8.60
2017-11-17T18:31:29.080Z,8.50
2017-11-17T18:33:56.979Z,8.50
2017-11-17T18:36:24.646Z,8.40
2017-11-17T18:38:53.155Z,8.30
2017-11-17T18:41:20.767Z,8.30
2017-11-17T18:43:48.422Z,8.20
2017-11-17T18:46:16.988Z,8.10
2017-11-17T18:48:45.485Z,8.10
2017-11-17T18:51:13.258Z,8.00
2017-11-17T18:53:40.812Z,8.00
2017-11-17T18:56:08.406Z,8.00
2017-11-17T18:58:37.764Z,7.90
2017-11-17T19:01:05.482Z,7.90
2017-11-17T19:03:33.291Z,7.90
2017-11-17T19:06:01.161Z,7.90
2017-11-17T19:08:28.887Z,7.90
2017-11-17T19:10:56.588Z,7.80
2017-11-17T19:13:24.291Z,7.90
2017-11-17T19:15:51.963Z,7.90
2017-11-17T19:18:19.581Z,7.90
2017-11-17T19:20:47.305Z,8.00
2017-11-17T19:23:16.006Z,8.00
2017-11-17T19:25:44.933Z,8.10
2017-11-17T19:28:13.678Z,8.10
2017-11-17T19:30:41.443Z,8.20
2017-11-17T19:33:09.241Z,8.20
2017-11-17T19:35:36.872Z,8.20
2017-11-17T19:38:05.591Z,8.30
2017-11-17T19:40:33.265Z,8.20
2017-11-17T19:43:01.139Z,8.20
2017-11-17T19:45:28.945Z,8.20
2017-11-17T19:47:56.542Z,8.10
2017-11-17T19:50:24.272Z,8.10
2017-11-17T19:52:51.874Z,8.00
2017-11-17T19:55:19.662Z,8.00
2017-11-17T19:57:48.106Z,7.90
2017-11-17T20:00:15.931Z,7.90
2017-11-17T20:02:43.625Z,7.80
2017-11-17T20:05:11.557Z,7.70
2017-11-17T20:07:39.267Z,7.60
2017-11-17T20:10:07.006Z,7.50
2017-11-17T20:12:35.514Z,7.40
2017-11-17T20:15:03.131Z,7.40
2017-11-17T20:17:30.989Z,7.40
2017-11-17T20:19:59.671Z,7.30
2017-11-17T20:22:29.245Z,7.20
2017-11-17T20:24:56.966Z,7.20
2017-11-17T20:27:24.935Z,7.20
2017-11-17T20:29:53.367Z,7.10
2017-11-17T20:32:21.137Z,7.00
2017-11-17T20:34:48.970Z,7.00
2017-11-17T20:37:16.710Z,6.90
2017-11-17T20:39:44.315Z,6.90
2017-11-17T20:42:12.047Z,6.80
2017-11-17T20:44:41.051Z,6.80
2017-11-17T20:47:11.612Z,6.70
2017-11-17T20:49:39.482Z,6.70
2017-11-17T20:52:07.065Z,6.60
2017-11-17T20:54:34.754Z,6.60
2017-11-17T20:57:02.583Z,6.60
2017-11-17T20:59:30.222Z,6.50
2017-11-17T21:01:58.070Z,6.50
2017-11-17T21:04:25.729Z,6.50
2017-11-17T21:06:54.430Z,6.40
2017-11-17T21:09:22.112Z,6.40
2017-11-17T21:11:49.912Z,6.30
2017-11-17T21:14:17.518Z,6.30
2017-11-17T21:16:45.400Z,6.30
2017-11-17T21:19:13.107Z,6.30
2017-11-17T21:21:42.010Z,6.20
2017-11-17T21:24:10.772Z,6.20
2017-11-17T21:26:38.522Z,6.20
2017-11-17T21:29:06.242Z,6.20
2017-11-17T21:31:34.706Z,6.10
2017-11-17T21:34:03.243Z,6.10
2017-11-17T21:36:30.987Z,6.10
2017-11-17T21:38:58.702Z,6.10
2017-11-17T21:41:26.327Z,6.00
2017-11-17T21:43:54.000Z,6.00
2017-11-17T21:46:21.863Z,6.00
2017-11-17T21:48:49.474Z,6.00
2017-11-17T21:51:17.165Z,6.00
2017-11-17T21:53:44.880Z,6.00
2017-11-17T21:56:12.709Z,6.00
2017-11-17T21:58:40.920Z,6.00
2017-11-17T22:01:08.698Z,6.00
2017-11-17T22:03:36.345Z,6.00
2017-11-17T22:06:04.046Z,6.00
2017-11-17T22:08:32.408Z,6.00
2017-11-17T22:11:01.220Z,6.00
2017-11-17T22:13:29.730Z,6.00
2017-11-17T22:15:57.375Z,6.00
2017-11-17T22:18:25.089Z,6.00
2017-11-17T22:20:52.815Z,6.00
2017-11-17T22:23:20.473Z,6.00
2017-11-17T22:25:48.162Z,5.90
2017-11-17T22:28:15.759Z,5.90
2017-11-17T22:30:43.527Z,5.80
2017-11-17T22:33:11.541Z,5.80
2017-11-17T22:35:39.279Z,5.80
2017-11-17T22:38:07.646Z,5.80
2017-11-17T22:40:36.079Z,5.80
2017-11-17T22:43:03.733Z,5.80
2017-11-17T22:45:31.447Z,5.80
2017-11-17T22:47:59.129Z,5.70
2017-11-17T22:50:27.536Z,5.70
2017-11-17T22:52:55.309Z,5.70
2017-11-17T22:55:23.042Z,5.80
2017-11-17T22:57:51.517Z,5.90
2017-11-17T23:00:19.170Z,5.90
2017-11-17T23:02:46.801Z,6.00
2017-11-17T23:05:14.415Z,6.10
2017-11-17T23:07:42.119Z,6.10
2017-11-17T23:10:09.883Z,6.20
2017-11-17T23:12:37.494Z,6.20
2017-11-17T23:15:05.239Z,6.30
2017-11-17T23:17:32.922Z,6.30
2017-11-17T23:20:01.363Z,6.40
2017-11-17T23:22:29.188Z,6.40
2017-11-17T23:24:56.900Z,6.40
2017-11-17T23:27:24.585Z,6.40
2017-11-17T23:29:52.214Z,6.50
2017-11-17T23:32:20.681Z,6.50
2017-11-17T23:34:48.412Z,6.50
2017-11-17T23:37:16.127Z,6.60
2017-11-17T23:39:43.809Z,6.50
2017-11-17T23:42:11.423Z,6.50
2017-11-17T23:44:39.091Z,6.50
2017-11-17T23:47:06.823Z,6.50
2017-11-17T23:49:34.472Z,6.60
2017-11-17T23:52:02.155Z,6.60
2017-11-17T23:54:29.965Z,6.50
2017-11-17T23:56:57.676Z,6.50
2017-11-17T23:59:26.209Z,6.50
